コモドロリバダビア の空港の天気 - METARとTAF

Comodoro Rivadavia Aerodrome ( SAVC / CRD ) - アルゼンチン チュブ州コモドロリバダビア
飛行場実況気象(Metar)
観測時間05/26 19:00 ART (05/26 22:00 UTC)
風向・風速西北西 3m/s
視程10km以上
天気現象
なし
気温15℃
湿度45%
気圧1007hPa
METARSAVC 262200Z 29006KT CAVOK 15/03 Q1007
過去の天気等 Google飛行場航空写真 Wunderground天気予報

過去48時間のMETAR

飛行場予報(TAF)
発表時間: 5/26 14:00 ART (5/26 17:00 UTC)
予報対象時間: 26日15時 ART ~ 27日15時 ART
風向・風速西 5m/s 瞬間風速 13m/s
視程10km以上
なし
TAF SAVC 261700Z 2618/2718 27010G25KT CAVOK TX17/2618Z TN07/2710Z